• Join FlightAware (Why Join?)
  • Login
  • US Flag 
03:52AM EST


 

Airport Tracker/Info


-or-


 

Live Flight TrackerFlight Track Log ✈ CSZ9907 ✈ 26-Aug-2014 ✈ ZSQZ / JJN - ZSPD / PVG

Flight Track Log - Related Links

Times and Time Zones

All times are in EDT time to prevent confusion due to time zone crossing. See the CSZ9907 flight status page for this flight to view local times or setup timezone preferences in your user account.

Time Position Orientation Groundspeed Altitude Reporting Facility
EDT Latitude Longitude Course Direction KTS MPH feet Rate Location/Type
04:05AM 25.4634 118.9078 23° Northeast  Level Estimated
04:06AM 25.5586 118.9536 23° Northeast  Level Estimated
04:07AM 25.6539 118.9994 23° Northeast  Level Estimated
04:08AM 25.7491 119.0453 23° Northeast  Level Estimated
04:09AM 25.8443 119.0912 23° Northeast  Level Estimated
04:10AM 25.9394 119.1372 24° Northeast  Level Estimated
04:11AM 26.0346 119.1833 24° Northeast  Level Estimated
04:12AM 26.1298 119.2295 24° Northeast  Level Estimated
04:13AM 26.2249 119.2758 24° Northeast  Level Estimated
04:14AM 26.3200 119.3221 24° Northeast  Level Estimated
04:15AM 26.4151 119.3685 24° Northeast  Level Estimated
04:16AM 26.5102 119.4150 24° Northeast  Level Estimated
04:17AM 26.6053 119.4615 24° Northeast  Level Estimated
04:18AM 26.7003 119.5082 24° Northeast  Level Estimated
04:19AM 26.7954 119.5549 24° Northeast  Level Estimated
04:20AM 26.8904 119.6017 24° Northeast  Level Estimated
04:21AM 26.9854 119.6485 24° Northeast  Level Estimated
04:22AM 27.0804 119.6955 24° Northeast  Level Estimated
04:23AM 27.1754 119.7425 24° Northeast  Level Estimated
04:24AM 27.2703 119.7896 24° Northeast  Level Estimated
04:25AM 27.3653 119.8368 24° Northeast  Level Estimated
04:26AM 27.4602 119.8841 24° Northeast  Level Estimated
04:27AM 27.5551 119.9314 24° Northeast  Level Estimated
04:28AM 27.6500 119.9789 24° Northeast  Level Estimated
04:29AM 27.7449 120.0264 24° Northeast  Level Estimated
04:30AM 27.8398 120.0740 24° Northeast  Level Estimated
04:31AM 27.9347 120.1216 24° Northeast  Level Estimated
04:32AM 28.0295 120.1694 24° Northeast  Level Estimated
04:33AM 28.1243 120.2172 24° Northeast  Level Estimated
04:34AM 28.2191 120.2652 24° Northeast  Level Estimated
04:35AM 28.3139 120.3132 24° Northeast  Level Estimated
04:36AM 28.4087 120.3613 24° Northeast  Level Estimated
04:37AM 28.5034 120.4095 24° Northeast  Level Estimated
04:38AM 28.5982 120.4578 24° Northeast  Level Estimated
04:39AM 28.6929 120.5061 24° Northeast  Level Estimated
04:40AM 28.7876 120.5546 24° Northeast  Level Estimated
04:41AM 28.8823 120.6031 24° Northeast  Level Estimated
04:42AM 28.9769 120.6518 24° Northeast  Level Estimated
04:43AM 29.0716 120.7005 24° Northeast  Level Estimated
04:44AM 29.1662 120.7493 24° Northeast  Level Estimated
04:45AM 29.2608 120.7982 24° Northeast  Level Estimated
04:46AM 29.3554 120.8472 24° Northeast  Level Estimated
04:47AM 29.4500 120.8962 24° Northeast  Level Estimated
04:48AM 29.5445 120.9454 24° Northeast  Level Estimated
04:49AM 29.6391 120.9947 24° Northeast  Level Estimated
04:50AM 29.7336 121.0440 24° Northeast  Level Estimated
04:51AM 29.8281 121.0935 24° Northeast  Level Estimated
04:52AM 29.9226 121.1430 24° Northeast  Level Estimated
04:53AM 30.0171 121.1927 24° Northeast  Level Estimated
04:54AM 30.1115 121.2424 24° Northeast  Level Estimated
04:55AM 30.2059 121.2922 25° Northeast  Level Estimated
04:56AM 30.3004 121.3421 25° Northeast  Level Estimated
04:57AM 30.3948 121.3922 25° Northeast  Level Estimated
04:58AM 30.4891 121.4423 25° Northeast  Level Estimated
04:58AM 29.8629 121.7456 36° Northeast 342 394 16,700  Level FlightAware ADS-B
04:59AM 30.5835 121.4925 25° Northeast  Level Estimated
04:59AM 29.9829 121.7794 North 343 395 16,700  Level FlightAware ADS-B
05:00AM 30.0482 121.7814 North 342 394 16,700  Level FlightAware ADS-B
05:00AM 30.1095 121.7829 North 339 390 16,700  Level FlightAware ADS-B
05:01AM 30.2031 121.7869 North 335 386 16,700 -1,205 Level FlightAware ADS-B
05:04AM 30.4528 121.8015 North 319 367 12,200 -1,706 Descending FlightAware ADS-B
05:05AM 30.5061 121.7877 339° North 300 345 10,900 -2,175 Descending FlightAware ADS-B
05:05AM 30.5578 121.7633 338° Northwest 296 341 9,300 -2,339 Descending FlightAware ADS-B
05:06AM 30.5826 121.7513 337° Northwest 293 337 8,600 -2,294 Descending FlightAware ADS-B
05:06AM 30.5995 121.7430 337° Northwest 291 335 8,000 -1,814 Descending FlightAware ADS-B
05:06AM 30.6348 121.7249 338° Northwest 283 326 7,300 -1,304 Descending FlightAware ADS-B
05:07AM 30.6595 121.7233 10° North 272 313 7,000 -750 Descending FlightAware ADS-B
05:07AM 30.6798 121.7364 41° Northeast 257 296 6,800 -615 Descending FlightAware ADS-B
05:07AM 30.6911 121.7485 44° Northeast 244 281 6,600 -632 Descending FlightAware ADS-B
05:08AM 30.7098 121.7693 44° Northeast 233 268 6,400 -600 Descending FlightAware ADS-B
05:13AM 30.9496 121.8607 343° North 172 198 3,500 -629 Descending FlightAware ADS-B (ZSSL)
05:13AM 30.9685 121.8536 343° North 169 194 3,100 -1,050 Descending FlightAware ADS-B (ZSSL)
05:13AM 30.9794 121.8495 343° North 166 191 2,800 -1,000 Descending FlightAware ADS-B (ZSSL)
05:13AM 30.9913 121.8450 343° North 161 185 2,600 -857 Descending FlightAware ADS-B (ZSSL)
05:14AM 30.9991 121.8421 342° North 158 182 2,500 -400 Descending FlightAware ADS-B
05:14AM 31.0016 121.8411 343° North 158 182 2,500 -750 Level FlightAware ADS-B (ZSSL)
05:14AM 31.0121 121.8372 343° North 156 180 2,200 -889 Descending FlightAware ADS-B (ZSSL)
05:14AM 31.0201 121.8342 342° North 154 177 2,100 -857 Descending FlightAware ADS-B (ZSSL)
05:14AM 31.0191 121.8346 342° North 153 176 2,000 -736 Descending FlightAware ADS-B
05:16AM 31.0872 121.8089 342° North 141 162 800 -694 Descending FlightAware ADS-B (ZSSL)
05:16AM 31.0972 121.8051 343° North 141 162 600 -706 Descending FlightAware ADS-B (ZSSL)
05:19AM 31.1428 121.7924 347° North  Level Estimated
05:20AM 31.1428 121.7924 North  Level Estimated
05:21AM 31.1428 121.7924 North  Level Estimated